Terminal Aerodrome Forecast
Issued by NWS Goodland, KS

Home | Current Version | Previous Version | Text Only | Print | Product List | Glossary On
Versions: 1 2 3 4 5 6 7 8 9 10 11 12
000
FTUS43 KGLD 281720
TAFGLD
TAF
KGLD 281720Z 2818/2918 05006KT P6SM SKC
     FM290300 12006KT P6SM SKC
     FM290800 15008KT P6SM SKC
     FM291600 17012G19KT P6SM SKC=

USA.gov is the U.S. government's official web portal to all federal, state and local government web resources and services.